sensor_id;sensor_type;location;lat;lon;timestamp;P1;durP1;ratioP1;P2;durP2;ratioP2
18738;SDS011;9498;51.862;19.460;2022-09-09T00:02:19;22.40;;;10.53;;
18738;SDS011;9498;51.862;19.460;2022-09-09T00:04:49;20.03;;;9.73;;
18738;SDS011;9498;51.862;19.460;2022-09-09T00:07:24;21.00;;;9.50;;
18738;SDS011;9498;51.862;19.460;2022-09-09T00:09:55;18.10;;;10.07;;
18738;SDS011;9498;51.862;19.460;2022-09-09T00:12:27;21.67;;;9.87;;
18738;SDS011;9498;51.862;19.460;2022-09-09T00:14:58;24.17;;;10.73;;
18738;SDS011;9498;51.862;19.460;2022-09-09T00:17:31;23.57;;;10.47;;
18738;SDS011;9498;51.862;19.460;2022-09-09T00:20:01;22.50;;;9.73;;
18738;SDS011;9498;51.862;19.460;2022-09-09T00:22:30;22.87;;;9.80;;
18738;SDS011;9498;51.862;19.460;2022-09-09T00:24:58;20.00;;;10.47;;
18738;SDS011;9498;51.862;19.460;2022-09-09T00:27:29;23.77;;;10.50;;
18738;SDS011;9498;51.862;19.460;2022-09-09T00:30:00;19.67;;;9.93;;
18738;SDS011;9498;51.862;19.460;2022-09-09T00:32:29;20.83;;;10.73;;
18738;SDS011;9498;51.862;19.460;2022-09-09T00:35:00;23.00;;;10.67;;
18738;SDS011;9498;51.862;19.460;2022-09-09T00:37:28;18.43;;;9.97;;
18738;SDS011;9498;51.862;19.460;2022-09-09T00:39:59;25.37;;;10.33;;
18738;SDS011;9498;51.862;19.460;2022-09-09T00:42:31;19.77;;;10.37;;
18738;SDS011;9498;51.862;19.460;2022-09-09T00:45:05;21.10;;;9.97;;
18738;SDS011;9498;51.862;19.460;2022-09-09T00:47:40;24.80;;;10.67;;
18738;SDS011;9498;51.862;19.460;2022-09-09T00:50:13;20.83;;;10.53;;
18738;SDS011;9498;51.862;19.460;2022-09-09T00:52:43;22.23;;;9.80;;
18738;SDS011;9498;51.862;19.460;2022-09-09T00:55:15;18.47;;;10.33;;
18738;SDS011;9498;51.862;19.460;2022-09-09T00:57:44;21.77;;;10.77;;
18738;SDS011;9498;51.862;19.460;2022-09-09T01:00:19;18.53;;;10.27;;
18738;SDS011;9498;51.862;19.460;2022-09-09T01:02:52;20.90;;;10.63;;
18738;SDS011;9498;51.862;19.460;2022-09-09T01:05:24;21.23;;;10.67;;
18738;SDS011;9498;51.862;19.460;2022-09-09T01:07:54;23.17;;;11.30;;
18738;SDS011;9498;51.862;19.460;2022-09-09T01:10:24;22.57;;;10.70;;
18738;SDS011;9498;51.862;19.460;2022-09-09T01:12:52;27.93;;;11.63;;
18738;SDS011;9498;51.862;19.460;2022-09-09T01:15:24;18.23;;;10.33;;
18738;SDS011;9498;51.862;19.460;2022-09-09T01:17:55;20.23;;;10.67;;
18738;SDS011;9498;51.862;19.460;2022-09-09T01:20:29;22.10;;;10.83;;
18738;SDS011;9498;51.862;19.460;2022-09-09T01:23:09;19.83;;;10.70;;
18738;SDS011;9498;51.862;19.460;2022-09-09T01:28:42;19.13;;;10.77;;
18738;SDS011;9498;51.862;19.460;2022-09-09T01:31:11;23.03;;;11.40;;
18738;SDS011;9498;51.862;19.460;2022-09-09T01:33:41;27.50;;;11.73;;
18738;SDS011;9498;51.862;19.460;2022-09-09T01:36:09;22.10;;;10.90;;
18738;SDS011;9498;51.862;19.460;2022-09-09T01:38:38;20.20;;;10.77;;
18738;SDS011;9498;51.862;19.460;2022-09-09T01:41:06;21.83;;;11.03;;
18738;SDS011;9498;51.862;19.460;2022-09-09T01:43:35;23.27;;;11.27;;
18738;SDS011;9498;51.862;19.460;2022-09-09T01:46:02;22.70;;;11.87;;
18738;SDS011;9498;51.862;19.460;2022-09-09T01:48:29;20.87;;;11.43;;
18738;SDS011;9498;51.862;19.460;2022-09-09T01:50:57;21.50;;;11.53;;
18738;SDS011;9498;51.862;19.460;2022-09-09T01:53:24;27.57;;;13.27;;
18738;SDS011;9498;51.862;19.460;2022-09-09T01:55:55;25.77;;;12.73;;
18738;SDS011;9498;51.862;19.460;2022-09-09T01:58:27;31.57;;;13.87;;
18738;SDS011;9498;51.862;19.460;2022-09-09T02:00:59;33.27;;;13.47;;
18738;SDS011;9498;51.862;19.460;2022-09-09T02:03:29;24.23;;;11.30;;
18738;SDS011;9498;51.862;19.460;2022-09-09T02:06:00;30.17;;;14.17;;
18738;SDS011;9498;51.862;19.460;2022-09-09T02:08:33;29.57;;;14.13;;
18738;SDS011;9498;51.862;19.460;2022-09-09T02:11:04;29.50;;;13.10;;
18738;SDS011;9498;51.862;19.460;2022-09-09T02:13:32;23.40;;;12.13;;
18738;SDS011;9498;51.862;19.460;2022-09-09T02:16:04;24.10;;;12.60;;
18738;SDS011;9498;51.862;19.460;2022-09-09T02:18:34;28.63;;;13.40;;
18738;SDS011;9498;51.862;19.460;2022-09-09T02:21:02;26.60;;;13.53;;
18738;SDS011;9498;51.862;19.460;2022-09-09T02:23:30;24.93;;;13.23;;
18738;SDS011;9498;51.862;19.460;2022-09-09T02:25:57;32.40;;;13.93;;
18738;SDS011;9498;51.862;19.460;2022-09-09T02:28:26;31.60;;;14.63;;
18738;SDS011;9498;51.862;19.460;2022-09-09T02:30:54;29.47;;;13.67;;
18738;SDS011;9498;51.862;19.460;2022-09-09T02:33:24;27.23;;;13.90;;
18738;SDS011;9498;51.862;19.460;2022-09-09T02:35:52;26.97;;;12.60;;
18738;SDS011;9498;51.862;19.460;2022-09-09T02:38:21;34.07;;;14.30;;
18738;SDS011;9498;51.862;19.460;2022-09-09T02:40:51;30.77;;;14.23;;
18738;SDS011;9498;51.862;19.460;2022-09-09T02:43:18;31.37;;;14.47;;
18738;SDS011;9498;51.862;19.460;2022-09-09T02:45:49;24.83;;;13.17;;
18738;SDS011;9498;51.862;19.460;2022-09-09T02:48:20;26.07;;;13.77;;
18738;SDS011;9498;51.862;19.460;2022-09-09T02:50:52;27.87;;;13.67;;
18738;SDS011;9498;51.862;19.460;2022-09-09T02:53:22;29.77;;;14.73;;
18738;SDS011;9498;51.862;19.460;2022-09-09T02:55:51;30.73;;;14.27;;
18738;SDS011;9498;51.862;19.460;2022-09-09T02:58:21;29.90;;;14.60;;
18738;SDS011;9498;51.862;19.460;2022-09-09T03:00:49;29.70;;;14.47;;
18738;SDS011;9498;51.862;19.460;2022-09-09T03:03:17;33.57;;;14.70;;
18738;SDS011;9498;51.862;19.460;2022-09-09T03:05:47;28.73;;;14.63;;
18738;SDS011;9498;51.862;19.460;2022-09-09T03:08:15;27.33;;;14.87;;
18738;SDS011;9498;51.862;19.460;2022-09-09T03:10:43;30.30;;;15.37;;
18738;SDS011;9498;51.862;19.460;2022-09-09T03:13:10;31.23;;;15.30;;
18738;SDS011;9498;51.862;19.460;2022-09-09T03:15:38;30.43;;;15.00;;
18738;SDS011;9498;51.862;19.460;2022-09-09T03:18:05;30.33;;;15.43;;
18738;SDS011;9498;51.862;19.460;2022-09-09T03:20:32;32.87;;;15.47;;
18738;SDS011;9498;51.862;19.460;2022-09-09T03:23:00;33.60;;;15.70;;
18738;SDS011;9498;51.862;19.460;2022-09-09T03:25:28;42.73;;;17.07;;
18738;SDS011;9498;51.862;19.460;2022-09-09T03:27:57;34.40;;;16.80;;
18738;SDS011;9498;51.862;19.460;2022-09-09T03:30:24;38.73;;;17.67;;
18738;SDS011;9498;51.862;19.460;2022-09-09T03:32:51;35.13;;;17.43;;
18738;SDS011;9498;51.862;19.460;2022-09-09T03:35:20;34.00;;;15.87;;
18738;SDS011;9498;51.862;19.460;2022-09-09T03:37:47;35.37;;;17.23;;
18738;SDS011;9498;51.862;19.460;2022-09-09T03:40:14;36.10;;;18.10;;
18738;SDS011;9498;51.862;19.460;2022-09-09T03:42:44;38.80;;;17.63;;
18738;SDS011;9498;51.862;19.460;2022-09-09T03:45:11;36.87;;;17.53;;
18738;SDS011;9498;51.862;19.460;2022-09-09T03:47:38;38.80;;;18.00;;
18738;SDS011;9498;51.862;19.460;2022-09-09T03:50:06;39.97;;;18.23;;
18738;SDS011;9498;51.862;19.460;2022-09-09T03:52:34;36.17;;;18.10;;
18738;SDS011;9498;51.862;19.460;2022-09-09T03:55:02;40.93;;;17.70;;
18738;SDS011;9498;51.862;19.460;2022-09-09T03:57:29;41.13;;;18.30;;
18738;SDS011;9498;51.862;19.460;2022-09-09T03:59:58;37.80;;;17.83;;
18738;SDS011;9498;51.862;19.460;2022-09-09T04:02:26;43.47;;;19.13;;
18738;SDS011;9498;51.862;19.460;2022-09-09T04:04:53;37.67;;;17.83;;
18738;SDS011;9498;51.862;19.460;2022-09-09T04:07:21;39.50;;;18.50;;
18738;SDS011;9498;51.862;19.460;2022-09-09T04:09:48;39.87;;;19.30;;
18738;SDS011;9498;51.862;19.460;2022-09-09T04:12:16;43.77;;;20.53;;
18738;SDS011;9498;51.862;19.460;2022-09-09T04:14:43;46.67;;;19.90;;
18738;SDS011;9498;51.862;19.460;2022-09-09T04:17:11;43.83;;;20.10;;
18738;SDS011;9498;51.862;19.460;2022-09-09T04:19:39;43.23;;;21.57;;
18738;SDS011;9498;51.862;19.460;2022-09-09T04:22:07;44.33;;;22.30;;
18738;SDS011;9498;51.862;19.460;2022-09-09T04:24:34;53.13;;;22.37;;
18738;SDS011;9498;51.862;19.460;2022-09-09T04:27:01;44.40;;;20.83;;
18738;SDS011;9498;51.862;19.460;2022-09-09T04:29:29;49.07;;;23.03;;
18738;SDS011;9498;51.862;19.460;2022-09-09T04:31:56;45.93;;;22.70;;
18738;SDS011;9498;51.862;19.460;2022-09-09T04:34:25;52.43;;;23.63;;
18738;SDS011;9498;51.862;19.460;2022-09-09T04:36:52;46.13;;;21.97;;
18738;SDS011;9498;51.862;19.460;2022-09-09T04:39:21;49.63;;;23.00;;
18738;SDS011;9498;51.862;19.460;2022-09-09T04:41:48;48.87;;;22.63;;
18738;SDS011;9498;51.862;19.460;2022-09-09T04:44:15;43.97;;;22.63;;
18738;SDS011;9498;51.862;19.460;2022-09-09T04:46:42;47.97;;;21.93;;
18738;SDS011;9498;51.862;19.460;2022-09-09T04:49:10;49.07;;;23.60;;
18738;SDS011;9498;51.862;19.460;2022-09-09T04:51:38;53.17;;;23.30;;
18738;SDS011;9498;51.862;19.460;2022-09-09T04:54:05;49.90;;;22.83;;
18738;SDS011;9498;51.862;19.460;2022-09-09T04:56:33;53.67;;;23.37;;
18738;SDS011;9498;51.862;19.460;2022-09-09T04:59:01;53.33;;;24.03;;
18738;SDS011;9498;51.862;19.460;2022-09-09T05:01:29;52.63;;;24.03;;
18738;SDS011;9498;51.862;19.460;2022-09-09T05:03:57;55.77;;;23.87;;
18738;SDS011;9498;51.862;19.460;2022-09-09T05:06:24;64.27;;;25.27;;
18738;SDS011;9498;51.862;19.460;2022-09-09T05:08:53;57.10;;;25.27;;
18738;SDS011;9498;51.862;19.460;2022-09-09T05:11:20;66.00;;;25.93;;
18738;SDS011;9498;51.862;19.460;2022-09-09T05:13:49;66.20;;;25.83;;
18738;SDS011;9498;51.862;19.460;2022-09-09T05:16:17;65.87;;;27.77;;
18738;SDS011;9498;51.862;19.460;2022-09-09T05:18:44;72.73;;;27.43;;
18738;SDS011;9498;51.862;19.460;2022-09-09T05:21:12;69.80;;;27.27;;
18738;SDS011;9498;51.862;19.460;2022-09-09T05:23:40;72.60;;;27.33;;
18738;SDS011;9498;51.862;19.460;2022-09-09T05:26:11;68.57;;;28.63;;
18738;SDS011;9498;51.862;19.460;2022-09-09T05:28:39;82.63;;;29.70;;
18738;SDS011;9498;51.862;19.460;2022-09-09T05:31:07;80.67;;;29.50;;
18738;SDS011;9498;51.862;19.460;2022-09-09T05:33:36;76.27;;;27.80;;
18738;SDS011;9498;51.862;19.460;2022-09-09T05:36:06;85.73;;;29.93;;
18738;SDS011;9498;51.862;19.460;2022-09-09T05:38:35;85.30;;;29.77;;
18738;SDS011;9498;51.862;19.460;2022-09-09T05:41:03;84.20;;;29.90;;
18738;SDS011;9498;51.862;19.460;2022-09-09T05:43:32;88.10;;;28.83;;
18738;SDS011;9498;51.862;19.460;2022-09-09T05:46:01;82.17;;;28.87;;
18738;SDS011;9498;51.862;19.460;2022-09-09T05:48:29;75.80;;;27.97;;
18738;SDS011;9498;51.862;19.460;2022-09-09T05:50:57;79.37;;;28.73;;
18738;SDS011;9498;51.862;19.460;2022-09-09T05:53:25;86.43;;;28.40;;
18738;SDS011;9498;51.862;19.460;2022-09-09T05:55:58;74.30;;;26.27;;
18738;SDS011;9498;51.862;19.460;2022-09-09T05:58:25;86.70;;;29.40;;
18738;SDS011;9498;51.862;19.460;2022-09-09T06:00:54;88.50;;;28.70;;
18738;SDS011;9498;51.862;19.460;2022-09-09T06:03:27;81.30;;;27.77;;
18738;SDS011;9498;51.862;19.460;2022-09-09T06:05:57;84.63;;;28.07;;
18738;SDS011;9498;51.862;19.460;2022-09-09T06:08:25;77.87;;;27.67;;
18738;SDS011;9498;51.862;19.460;2022-09-09T06:10:52;84.93;;;28.43;;
18738;SDS011;9498;51.862;19.460;2022-09-09T06:13:19;82.07;;;27.27;;
18738;SDS011;9498;51.862;19.460;2022-09-09T06:15:50;75.53;;;25.87;;
18738;SDS011;9498;51.862;19.460;2022-09-09T06:18:19;75.53;;;27.70;;
18738;SDS011;9498;51.862;19.460;2022-09-09T06:20:55;79.20;;;26.93;;
18738;SDS011;9498;51.862;19.460;2022-09-09T06:23:23;76.50;;;26.33;;
18738;SDS011;9498;51.862;19.460;2022-09-09T06:25:51;74.87;;;26.57;;
18738;SDS011;9498;51.862;19.460;2022-09-09T06:28:18;69.13;;;25.27;;
18738;SDS011;9498;51.862;19.460;2022-09-09T06:30:45;75.10;;;25.63;;
18738;SDS011;9498;51.862;19.460;2022-09-09T06:33:12;80.17;;;25.67;;
18738;SDS011;9498;51.862;19.460;2022-09-09T06:35:41;70.30;;;23.83;;
18738;SDS011;9498;51.862;19.460;2022-09-09T06:38:10;70.07;;;24.53;;
18738;SDS011;9498;51.862;19.460;2022-09-09T06:40:37;65.87;;;24.50;;
18738;SDS011;9498;51.862;19.460;2022-09-09T06:43:04;68.63;;;24.53;;
18738;SDS011;9498;51.862;19.460;2022-09-09T06:45:32;66.60;;;23.87;;
18738;SDS011;9498;51.862;19.460;2022-09-09T06:48:01;65.63;;;23.93;;
18738;SDS011;9498;51.862;19.460;2022-09-09T06:50:29;63.00;;;23.43;;
18738;SDS011;9498;51.862;19.460;2022-09-09T06:52:57;61.30;;;22.77;;
18738;SDS011;9498;51.862;19.460;2022-09-09T06:55:24;61.03;;;22.77;;
18738;SDS011;9498;51.862;19.460;2022-09-09T06:57:52;62.17;;;22.47;;
18738;SDS011;9498;51.862;19.460;2022-09-09T07:00:19;64.27;;;22.37;;
18738;SDS011;9498;51.862;19.460;2022-09-09T07:02:46;58.60;;;21.70;;
18738;SDS011;9498;51.862;19.460;2022-09-09T07:05:16;61.28;;;24.85;;
18738;SDS011;9498;51.862;19.460;2022-09-09T07:07:43;52.60;;;22.30;;
18738;SDS011;9498;51.862;19.460;2022-09-09T07:10:11;53.77;;;20.50;;
18738;SDS011;9498;51.862;19.460;2022-09-09T07:12:39;44.23;;;18.03;;
18738;SDS011;9498;51.862;19.460;2022-09-09T07:15:06;49.60;;;19.00;;
18738;SDS011;9498;51.862;19.460;2022-09-09T07:17:34;47.97;;;19.03;;
18738;SDS011;9498;51.862;19.460;2022-09-09T07:20:01;50.80;;;19.47;;
18738;SDS011;9498;51.862;19.460;2022-09-09T07:22:29;44.13;;;19.23;;
18738;SDS011;9498;51.862;19.460;2022-09-09T07:24:57;51.67;;;19.43;;
18738;SDS011;9498;51.862;19.460;2022-09-09T07:27:25;47.87;;;19.47;;
18738;SDS011;9498;51.862;19.460;2022-09-09T07:29:53;45.23;;;18.30;;
18738;SDS011;9498;51.862;19.460;2022-09-09T07:32:20;44.10;;;19.20;;
18738;SDS011;9498;51.862;19.460;2022-09-09T07:34:47;43.40;;;18.13;;
18738;SDS011;9498;51.862;19.460;2022-09-09T07:37:15;40.30;;;17.67;;
18738;SDS011;9498;51.862;19.460;2022-09-09T07:39:42;38.83;;;17.20;;
18738;SDS011;9498;51.862;19.460;2022-09-09T07:42:10;37.23;;;17.20;;
18738;SDS011;9498;51.862;19.460;2022-09-09T07:44:39;40.63;;;16.43;;
18738;SDS011;9498;51.862;19.460;2022-09-09T07:47:06;34.60;;;15.67;;
18738;SDS011;9498;51.862;19.460;2022-09-09T07:49:33;35.20;;;16.30;;
18738;SDS011;9498;51.862;19.460;2022-09-09T07:52:01;38.97;;;16.53;;
18738;SDS011;9498;51.862;19.460;2022-09-09T07:54:28;31.27;;;14.73;;
18738;SDS011;9498;51.862;19.460;2022-09-09T07:56:57;29.87;;;14.77;;
18738;SDS011;9498;51.862;19.460;2022-09-09T07:59:25;29.13;;;14.77;;
18738;SDS011;9498;51.862;19.460;2022-09-09T08:01:55;31.00;;;15.07;;
18738;SDS011;9498;51.862;19.460;2022-09-09T08:04:23;33.23;;;15.03;;
18738;SDS011;9498;51.862;19.460;2022-09-09T08:06:53;31.70;;;14.93;;
18738;SDS011;9498;51.862;19.460;2022-09-09T08:09:22;34.87;;;16.50;;
18738;SDS011;9498;51.862;19.460;2022-09-09T08:11:52;33.50;;;15.87;;
18738;SDS011;9498;51.862;19.460;2022-09-09T08:14:19;31.60;;;16.30;;
18738;SDS011;9498;51.862;19.460;2022-09-09T08:16:48;33.53;;;16.00;;
18738;SDS011;9498;51.862;19.460;2022-09-09T08:19:17;32.50;;;15.47;;
18738;SDS011;9498;51.862;19.460;2022-09-09T08:21:44;30.83;;;16.10;;
18738;SDS011;9498;51.862;19.460;2022-09-09T08:24:14;31.83;;;15.50;;
18738;SDS011;9498;51.862;19.460;2022-09-09T08:26:42;25.17;;;14.40;;
18738;SDS011;9498;51.862;19.460;2022-09-09T08:29:10;30.10;;;14.27;;
18738;SDS011;9498;51.862;19.460;2022-09-09T08:31:39;25.87;;;14.70;;
18738;SDS011;9498;51.862;19.460;2022-09-09T08:34:07;26.43;;;14.57;;
18738;SDS011;9498;51.862;19.460;2022-09-09T08:36:37;28.10;;;14.57;;
18738;SDS011;9498;51.862;19.460;2022-09-09T08:39:06;26.50;;;14.67;;
18738;SDS011;9498;51.862;19.460;2022-09-09T08:41:46;28.07;;;13.63;;
18738;SDS011;9498;51.862;19.460;2022-09-09T08:44:18;27.33;;;15.03;;
18738;SDS011;9498;51.862;19.460;2022-09-09T08:46:51;28.07;;;15.00;;
18738;SDS011;9498;51.862;19.460;2022-09-09T08:49:25;31.00;;;15.10;;
18738;SDS011;9498;51.862;19.460;2022-09-09T08:51:58;29.33;;;14.93;;
18738;SDS011;9498;51.862;19.460;2022-09-09T08:54:26;25.20;;;11.90;;
18738;SDS011;9498;51.862;19.460;2022-09-09T08:56:55;22.07;;;12.80;;
18738;SDS011;9498;51.862;19.460;2022-09-09T08:59:23;21.37;;;12.30;;
18738;SDS011;9498;51.862;19.460;2022-09-09T09:01:52;29.17;;;13.90;;
18738;SDS011;9498;51.862;19.460;2022-09-09T09:04:32;31.80;;;15.53;;
18738;SDS011;9498;51.862;19.460;2022-09-09T09:07:06;28.93;;;14.97;;
18738;SDS011;9498;51.862;19.460;2022-09-09T09:09:36;34.00;;;15.10;;
18738;SDS011;9498;51.862;19.460;2022-09-09T09:12:10;27.60;;;14.63;;
18738;SDS011;9498;51.862;19.460;2022-09-09T09:14:41;24.10;;;14.03;;
18738;SDS011;9498;51.862;19.460;2022-09-09T09:17:11;24.40;;;13.60;;
18738;SDS011;9498;51.862;19.460;2022-09-09T09:19:40;28.60;;;15.63;;
18738;SDS011;9498;51.862;19.460;2022-09-09T09:22:13;23.33;;;12.50;;
18738;SDS011;9498;51.862;19.460;2022-09-09T09:24:42;27.83;;;12.90;;
18738;SDS011;9498;51.862;19.460;2022-09-09T09:27:12;24.47;;;12.67;;
18738;SDS011;9498;51.862;19.460;2022-09-09T09:29:40;20.90;;;11.47;;
18738;SDS011;9498;51.862;19.460;2022-09-09T09:32:10;19.97;;;11.03;;
18738;SDS011;9498;51.862;19.460;2022-09-09T09:34:38;19.60;;;11.80;;
18738;SDS011;9498;51.862;19.460;2022-09-09T09:37:07;16.20;;;9.70;;
18738;SDS011;9498;51.862;19.460;2022-09-09T09:39:39;17.97;;;9.57;;
18738;SDS011;9498;51.862;19.460;2022-09-09T09:42:10;17.43;;;9.53;;
18738;SDS011;9498;51.862;19.460;2022-09-09T09:44:39;16.92;;;10.00;;
18738;SDS011;9498;51.862;19.460;2022-09-09T09:47:07;13.90;;;8.60;;
18738;SDS011;9498;51.862;19.460;2022-09-09T09:49:35;15.30;;;9.40;;
18738;SDS011;9498;51.862;19.460;2022-09-09T09:52:03;15.07;;;8.23;;
18738;SDS011;9498;51.862;19.460;2022-09-09T09:54:31;13.23;;;7.93;;
18738;SDS011;9498;51.862;19.460;2022-09-09T09:57:09;14.32;;;9.00;;
18738;SDS011;9498;51.862;19.460;2022-09-09T09:59:37;13.10;;;7.40;;
18738;SDS011;9498;51.862;19.460;2022-09-09T10:02:15;12.20;;;7.83;;
18738;SDS011;9498;51.862;19.460;2022-09-09T10:04:42;14.87;;;8.60;;
18738;SDS011;9498;51.862;19.460;2022-09-09T10:07:11;12.43;;;8.07;;
18738;SDS011;9498;51.862;19.460;2022-09-09T10:09:38;11.17;;;7.40;;
18738;SDS011;9498;51.862;19.460;2022-09-09T10:12:08;13.13;;;7.90;;
18738;SDS011;9498;51.862;19.460;2022-09-09T10:14:39;13.30;;;7.43;;
18738;SDS011;9498;51.862;19.460;2022-09-09T10:17:16;13.88;;;7.50;;
18738;SDS011;9498;51.862;19.460;2022-09-09T10:19:48;13.07;;;8.13;;
18738;SDS011;9498;51.862;19.460;2022-09-09T10:22:24;14.43;;;8.23;;
18738;SDS011;9498;51.862;19.460;2022-09-09T10:25:04;12.17;;;7.67;;
18738;SDS011;9498;51.862;19.460;2022-09-09T10:27:38;13.80;;;8.20;;
18738;SDS011;9498;51.862;19.460;2022-09-09T10:30:14;15.47;;;8.50;;
18738;SDS011;9498;51.862;19.460;2022-09-09T10:32:46;13.67;;;7.67;;
18738;SDS011;9498;51.862;19.460;2022-09-09T10:35:26;12.23;;;7.03;;
18738;SDS011;9498;51.862;19.460;2022-09-09T10:38:08;12.63;;;7.37;;
18738;SDS011;9498;51.862;19.460;2022-09-09T10:40:38;10.77;;;6.88;;
18738;SDS011;9498;51.862;19.460;2022-09-09T10:43:11;14.07;;;7.77;;
18738;SDS011;9498;51.862;19.460;2022-09-09T10:45:43;12.03;;;7.70;;
18738;SDS011;9498;51.862;19.460;2022-09-09T10:48:18;10.80;;;7.13;;
18738;SDS011;9498;51.862;19.460;2022-09-09T10:50:53;12.70;;;7.63;;
18738;SDS011;9498;51.862;19.460;2022-09-09T10:53:24;12.57;;;8.10;;
18738;SDS011;9498;51.862;19.460;2022-09-09T10:55:55;13.20;;;7.67;;
18738;SDS011;9498;51.862;19.460;2022-09-09T10:58:25;12.10;;;7.90;;
18738;SDS011;9498;51.862;19.460;2022-09-09T11:00:56;13.23;;;7.90;;
18738;SDS011;9498;51.862;19.460;2022-09-09T11:03:25;11.95;;;7.40;;
18738;SDS011;9498;51.862;19.460;2022-09-09T11:05:55;12.00;;;7.60;;
18738;SDS011;9498;51.862;19.460;2022-09-09T11:08:24;14.30;;;8.00;;
18738;SDS011;9498;51.862;19.460;2022-09-09T11:10:53;12.70;;;7.83;;
18738;SDS011;9498;51.862;19.460;2022-09-09T11:13:28;11.13;;;7.37;;
18738;SDS011;9498;51.862;19.460;2022-09-09T11:16:00;11.63;;;7.40;;
18738;SDS011;9498;51.862;19.460;2022-09-09T11:18:31;13.07;;;8.07;;
18738;SDS011;9498;51.862;19.460;2022-09-09T11:21:00;11.70;;;7.70;;
18738;SDS011;9498;51.862;19.460;2022-09-09T11:23:32;12.17;;;7.33;;
18738;SDS011;9498;51.862;19.460;2022-09-09T11:26:03;12.68;;;8.20;;
18738;SDS011;9498;51.862;19.460;2022-09-09T11:28:36;12.20;;;7.50;;
18738;SDS011;9498;51.862;19.460;2022-09-09T11:31:14;13.80;;;7.40;;
18738;SDS011;9498;51.862;19.460;2022-09-09T11:36:49;13.00;;;7.87;;
18738;SDS011;9498;51.862;19.460;2022-09-09T11:39:34;14.27;;;7.73;;
18738;SDS011;9498;51.862;19.460;2022-09-09T11:42:05;12.93;;;7.30;;
18738;SDS011;9498;51.862;19.460;2022-09-09T11:44:33;12.57;;;7.32;;
18738;SDS011;9498;51.862;19.460;2022-09-09T11:47:02;10.87;;;7.40;;
18738;SDS011;9498;51.862;19.460;2022-09-09T11:49:30;14.73;;;8.50;;
18738;SDS011;9498;51.862;19.460;2022-09-09T11:52:10;12.70;;;7.43;;
18738;SDS011;9498;51.862;19.460;2022-09-09T11:54:44;11.73;;;7.90;;
18738;SDS011;9498;51.862;19.460;2022-09-09T11:57:16;10.73;;;6.93;;
18738;SDS011;9498;51.862;19.460;2022-09-09T11:59:50;12.03;;;7.03;;
18738;SDS011;9498;51.862;19.460;2022-09-09T12:02:21;9.27;;;6.60;;
18738;SDS011;9498;51.862;19.460;2022-09-09T12:04:49;10.40;;;6.77;;
18738;SDS011;9498;51.862;19.460;2022-09-09T12:07:23;10.37;;;6.30;;
18738;SDS011;9498;51.862;19.460;2022-09-09T12:09:54;9.37;;;6.30;;
18738;SDS011;9498;51.862;19.460;2022-09-09T12:12:27;10.03;;;6.47;;
18738;SDS011;9498;51.862;19.460;2022-09-09T12:14:56;8.90;;;5.90;;
18738;SDS011;9498;51.862;19.460;2022-09-09T12:17:26;9.48;;;6.07;;
18738;SDS011;9498;51.862;19.460;2022-09-09T12:20:00;9.40;;;6.30;;
18738;SDS011;9498;51.862;19.460;2022-09-09T12:22:32;8.43;;;6.07;;
18738;SDS011;9498;51.862;19.460;2022-09-09T12:25:04;9.10;;;6.33;;
18738;SDS011;9498;51.862;19.460;2022-09-09T12:27:40;9.13;;;6.43;;
18738;SDS011;9498;51.862;19.460;2022-09-09T12:30:11;11.70;;;6.83;;
18738;SDS011;9498;51.862;19.460;2022-09-09T12:32:42;9.37;;;6.57;;
18738;SDS011;9498;51.862;19.460;2022-09-09T12:35:11;12.07;;;6.87;;
18738;SDS011;9498;51.862;19.460;2022-09-09T12:37:39;8.30;;;6.17;;
18738;SDS011;9498;51.862;19.460;2022-09-09T12:40:18;9.35;;;6.68;;
18738;SDS011;9498;51.862;19.460;2022-09-09T12:42:46;9.30;;;6.40;;
18738;SDS011;9498;51.862;19.460;2022-09-09T12:45:17;10.70;;;6.20;;
18738;SDS011;9498;51.862;19.460;2022-09-09T12:47:47;9.77;;;5.50;;
18738;SDS011;9498;51.862;19.460;2022-09-09T12:50:17;8.80;;;4.60;;
18738;SDS011;9498;51.862;19.460;2022-09-09T12:52:46;9.77;;;5.63;;
18738;SDS011;9498;51.862;19.460;2022-09-09T12:55:16;10.23;;;5.53;;
18738;SDS011;9498;51.862;19.460;2022-09-09T12:57:44;6.60;;;5.30;;
18738;SDS011;9498;51.862;19.460;2022-09-09T13:00:14;8.13;;;5.40;;
18738;SDS011;9498;51.862;19.460;2022-09-09T13:02:46;9.23;;;5.30;;
18738;SDS011;9498;51.862;19.460;2022-09-09T13:05:16;8.10;;;5.37;;
18738;SDS011;9498;51.862;19.460;2022-09-09T13:07:43;10.97;;;5.63;;
18738;SDS011;9498;51.862;19.460;2022-09-09T13:10:12;8.63;;;5.47;;
18738;SDS011;9498;51.862;19.460;2022-09-09T13:12:40;9.73;;;5.57;;
18738;SDS011;9498;51.862;19.460;2022-09-09T13:15:11;9.03;;;5.43;;
18738;SDS011;9498;51.862;19.460;2022-09-09T13:17:41;9.97;;;5.50;;
18738;SDS011;9498;51.862;19.460;2022-09-09T13:20:17;8.67;;;5.83;;
18738;SDS011;9498;51.862;19.460;2022-09-09T13:22:44;8.33;;;6.00;;
18738;SDS011;9498;51.862;19.460;2022-09-09T13:25:18;10.23;;;6.83;;
18738;SDS011;9498;51.862;19.460;2022-09-09T13:27:51;8.60;;;5.60;;
18738;SDS011;9498;51.862;19.460;2022-09-09T13:30:20;9.20;;;5.57;;
18738;SDS011;9498;51.862;19.460;2022-09-09T13:32:59;9.40;;;5.37;;
18738;SDS011;9498;51.862;19.460;2022-09-09T13:35:28;8.47;;;5.23;;
18738;SDS011;9498;51.862;19.460;2022-09-09T13:37:55;9.20;;;5.30;;
18738;SDS011;9498;51.862;19.460;2022-09-09T13:40:23;7.37;;;5.37;;
18738;SDS011;9498;51.862;19.460;2022-09-09T13:42:51;7.87;;;5.37;;
18738;SDS011;9498;51.862;19.460;2022-09-09T13:45:20;6.07;;;4.53;;
18738;SDS011;9498;51.862;19.460;2022-09-09T13:47:47;7.47;;;4.50;;
18738;SDS011;9498;51.862;19.460;2022-09-09T13:50:20;7.57;;;5.20;;
18738;SDS011;9498;51.862;19.460;2022-09-09T13:52:49;6.87;;;4.57;;
18738;SDS011;9498;51.862;19.460;2022-09-09T13:55:18;6.30;;;4.57;;
18738;SDS011;9498;51.862;19.460;2022-09-09T13:57:50;9.07;;;4.70;;
18738;SDS011;9498;51.862;19.460;2022-09-09T14:00:17;5.97;;;4.17;;
18738;SDS011;9498;51.862;19.460;2022-09-09T14:02:45;7.20;;;4.73;;
18738;SDS011;9498;51.862;19.460;2022-09-09T14:05:13;8.70;;;4.60;;
18738;SDS011;9498;51.862;19.460;2022-09-09T14:07:41;6.73;;;4.30;;
18738;SDS011;9498;51.862;19.460;2022-09-09T14:10:10;8.10;;;4.20;;
18738;SDS011;9498;51.862;19.460;2022-09-09T14:12:39;5.70;;;3.70;;
18738;SDS011;9498;51.862;19.460;2022-09-09T14:15:07;5.90;;;3.53;;
18738;SDS011;9498;51.862;19.460;2022-09-09T14:17:34;6.40;;;4.27;;
18738;SDS011;9498;51.862;19.460;2022-09-09T14:20:02;6.47;;;4.50;;
18738;SDS011;9498;51.862;19.460;2022-09-09T14:22:30;5.97;;;3.93;;
18738;SDS011;9498;51.862;19.460;2022-09-09T14:24:57;6.03;;;4.10;;
18738;SDS011;9498;51.862;19.460;2022-09-09T14:27:26;8.47;;;4.07;;
18738;SDS011;9498;51.862;19.460;2022-09-09T14:29:55;5.90;;;3.83;;
18738;SDS011;9498;51.862;19.460;2022-09-09T14:32:22;5.67;;;3.83;;
18738;SDS011;9498;51.862;19.460;2022-09-09T14:34:50;5.70;;;3.80;;
18738;SDS011;9498;51.862;19.460;2022-09-09T14:37:17;5.17;;;3.77;;
18738;SDS011;9498;51.862;19.460;2022-09-09T14:39:45;6.47;;;4.03;;
18738;SDS011;9498;51.862;19.460;2022-09-09T14:42:15;9.93;;;4.00;;
18738;SDS011;9498;51.862;19.460;2022-09-09T14:44:44;6.83;;;4.40;;
18738;SDS011;9498;51.862;19.460;2022-09-09T14:47:11;6.80;;;4.40;;
18738;SDS011;9498;51.862;19.460;2022-09-09T14:49:38;5.90;;;3.90;;